AGROMETEOROLOŠKI PORTAL

vinorodna pokrajina

Temelj dobrega kmetovanja

Pregled podatkov za lokacijo ČRNOMELJ - DOBLIČE ARSO, meteorološka postaja 103

Pregled senzorjev na lokaciji

ID Ime Zadnja
vrednost
Datum in čas
meritve
(lokalni čas)
Tip
senzorja
6030 Zračni tlak (hPa) 998 hPa 27.1.2023 02:30 ARSO
2300 Sončno sevanje (W/m2) 2 W/m2 27.1.2023 02:30 ARSO
2306 Padavine (mm) 0 mm 27.1.2023 02:30 ARSO
2294 Relativna zračna vlaga (2 m) (% RH) 89 % RH 27.1.2023 02:30 ARSO
2297 Temperatura tal (5 cm) (°C) 2,5 °C 27.1.2023 02:30 ARSO
2298 Temperatura tal (10 cm) (°C) 2,9 °C 27.1.2023 02:30 ARSO
2299 Temperatura tal (30 cm) (°C) 4 °C 27.1.2023 02:30 ARSO
2291 Temperatura (2 m) (°C) 0,2 °C 27.1.2023 02:30 ARSO
2302 Smer vetra (2 m) (°) 0 ° 27.1.2023 02:30 ARSO
2301 Hitrost vetra (2 m) (km/h) 0 km/h 27.1.2023 02:30 ARSO

Pregled podatkov zadnjih 24 ur

Zap.
št.
Datum in čas
(lokalni čas)
ČRNOMELJ - DOBLIČE ARSO
Zračni
tlak
Sončno
sevanje
Padavine Relativna
zračna
vlaga
(2
m)
Temperatura
tal
(5
cm)
Temperatura
tal
(10
cm)
Temperatura
tal
(30
cm)
Temperatura
(2
m)
Smer
vetra
(2
m)
Hitrost
vetra
(2
m)
1 27.1.2023 02:30 997,5 2 0 89 2,5 2,9 4 0,2 0 0
2 27.1.2023 02:00 997,4 2 0 89 2,5 2,9 4 0,2 13 0
3 27.1.2023 01:30 997,5 2 0 87 2,5 2,9 4 0,3 0 0
4 27.1.2023 01:00 997,5 2 0 86 2,5 2,9 4 0,4 0 0
5 27.1.2023 00:30 997,6 2 0 84 2,5 2,9 4 0,5 0 0
6 27.1.2023 00:00 997,7 2 0 78 2,5 2,9 4 1 0 0
7 26.1.2023 23:30 998 2 0 74 2,5 2,9 4 1,3 0 0
8 26.1.2023 23:00 998,2 2 0 73 2,5 2,9 4 1,3 144 1
9 26.1.2023 22:30 998,2 2 0 75 2,5 2,9 4 1,3 254 1
10 26.1.2023 22:00 998,2 2 0 73 2,5 2,9 4 1,5 22 3
11 26.1.2023 21:30 998,3 2 0 70 2,5 2,9 4 1,7 7 8
12 26.1.2023 21:00 998,4 2 0 71 2,5 2,9 4 1,7 8 8
13 26.1.2023 20:30 998,3 2 0 71 2,5 2,9 4 1,8 13 6
14 26.1.2023 20:00 998,2 2 0 73 2,5 2,9 4 1,7 14 4
15 26.1.2023 19:30 998,2 2 0 75 2,5 2,9 4 1,8 31 2
16 26.1.2023 19:00 998,2 2 0 75 2,5 2,9 4 1,8 20 5
17 26.1.2023 18:30 998,2 2 0 76 2,5 2,9 4 1,8 27 6
18 26.1.2023 18:00 998,2 2 0 72 2,6 2,9 4 2,1 17 3
19 26.1.2023 17:30 998,1 3 0 68 2,6 2,9 4 2,4 23 5
20 26.1.2023 17:00 998,1 7 0 68 2,6 2,9 4 2,4 10 7
21 26.1.2023 16:30 998 17 0 67 2,6 2,9 4 2,7 16 7
22 26.1.2023 16:00 998,1 41 0 67 2,6 2,9 4 2,8 18 5
23 26.1.2023 15:30 998,1 74 0 66 2,6 2,9 4,1 2,9 19 10
24 26.1.2023 15:00 998,2 101 0 64 2,6 2,9 4,1 2,9 44 12
25 26.1.2023 14:30 998,2 123 0 66 2,6 3 4,1 3 38 11
26 26.1.2023 14:00 998,4 105 0 68 2,6 2,9 4,1 2,9 40 8
27 26.1.2023 13:30 998,7 140 0 72 2,6 2,9 4,1 3 30 7
28 26.1.2023 13:00 999,1 123 0 75 2,6 2,9 4,1 3,2 70 0
29 26.1.2023 12:30 999,6 194 0 76 2,6 2,9 4,1 3,4 0 0
30 26.1.2023 12:00 1000 204 0 77 2,5 2,9 4,1 3,1 0 0
31 26.1.2023 11:30 1000,5 197 0 79 2,5 2,9 4,1 2,7 2 0
32 26.1.2023 11:00 1000,9 189 0 88 2,5 2,9 4,1 2,3 0 0
33 26.1.2023 10:30 1001 168 0 94 2,5 2,9 4,1 1,8 0 0
34 26.1.2023 10:00 1001,2 128 0 95 2,5 2,9 4,1 1,2 0 0
35 26.1.2023 09:30 1001,3 70 0 95 2,5 2,9 4,1 0,9 183 1
36 26.1.2023 09:00 1001,4 40 0 95 2,5 2,9 4,1 0,8 0 0
37 26.1.2023 08:30 1001,4 19 0 94 2,5 2,9 4,1 0,8 0 0
38 26.1.2023 08:00 1001,4 7 0 94 2,5 2,9 4,1 0,9 0 0
39 26.1.2023 07:30 1001,4 3 0 95 2,5 2,9 4,1 0,8 0 0
40 26.1.2023 07:00 1001,4 3 0 95 2,5 2,9 4,1 0,8 5 3
41 26.1.2023 06:30 1001,4 2 0 96 2,5 2,9 4,1 0,7 0 0
42 26.1.2023 06:00 1001,6 2 0 96 2,5 2,9 4,1 0,8 0 0
43 26.1.2023 05:30 1001,8 2 0 96 2,5 2,9 4,1 0,9 0 0
44 26.1.2023 05:00 1002,1 2 0 97 2,5 2,9 4,1 0,8 11 3
45 26.1.2023 04:30 1002,4 2 0 97 2,5 2,9 4,1 0,8 0 0
46 26.1.2023 04:00 1002,7 2 0 97 2,5 2,9 4,1 0,8 0 0
47 26.1.2023 03:30 1003 2 0 97 2,5 2,9 4,1 1 0 0
48 26.1.2023 03:00 1003,4 2 0 97 2,5 2,9 4,1 1 0 0